sensor_id;sensor_type;location;lat;lon;timestamp;pressure;altitude;pressure_sealevel;temperature;humidity
5350;BME280;2697;42.144;24.794;2023-03-14T00:01:45;153089.41;;;2.03;99.30
5350;BME280;2697;42.144;24.794;2023-03-14T00:04:10;153076.34;;;1.97;100.00
5350;BME280;2697;42.144;24.794;2023-03-14T00:06:35;153063.25;;;1.92;100.00
5350;BME280;2697;42.144;24.794;2023-03-14T00:09:01;153037.13;;;1.82;100.00
5350;BME280;2697;42.144;24.794;2023-03-14T00:11:26;153034.53;;;1.81;100.00
5350;BME280;2697;42.144;24.794;2023-03-14T00:13:52;153024.09;;;1.77;100.00
5350;BME280;2697;42.144;24.794;2023-03-14T00:16:18;153003.16;;;1.69;100.00
5350;BME280;2697;42.144;24.794;2023-03-14T00:18:44;152990.06;;;1.64;100.00
5350;BME280;2697;42.144;24.794;2023-03-14T00:21:10;152975.72;;;1.58;100.00
5350;BME280;2697;42.144;24.794;2023-03-14T00:23:37;152961.34;;;1.53;100.00
5350;BME280;2697;42.144;24.794;2023-03-14T00:26:11;152948.25;;;1.48;100.00
5350;BME280;2697;42.144;24.794;2023-03-14T00:28:37;152940.41;;;1.45;100.00
5350;BME280;2697;42.144;24.794;2023-03-14T00:31:07;152939.13;;;1.44;100.00
5350;BME280;2697;42.144;24.794;2023-03-14T00:33:33;152950.84;;;1.49;100.00
5350;BME280;2697;42.144;24.794;2023-03-14T00:36:01;152961.34;;;1.53;100.00
5350;BME280;2697;42.144;24.794;2023-03-14T00:38:27;152966.56;;;1.55;100.00
5350;BME280;2697;42.144;24.794;2023-03-14T00:40:52;152966.56;;;1.55;100.00
5350;BME280;2697;42.144;24.794;2023-03-14T00:43:18;152963.94;;;1.54;100.00
5350;BME280;2697;42.144;24.794;2023-03-14T00:45:47;152977.03;;;1.59;100.00
5350;BME280;2697;42.144;24.794;2023-03-14T00:48:12;152991.38;;;1.64;100.00
5350;BME280;2697;42.144;24.794;2023-03-14T00:50:38;152953.50;;;1.50;100.00
5350;BME280;2697;42.144;24.794;2023-03-14T00:53:04;152937.81;;;1.43;100.00
5350;BME280;2697;42.144;24.794;2023-03-14T00:55:30;152943.03;;;1.46;100.00
5350;BME280;2697;42.144;24.794;2023-03-14T00:57:55;152971.75;;;1.57;100.00
5350;BME280;2697;42.144;24.794;2023-03-14T01:00:20;152957.41;;;1.51;100.00
5350;BME280;2697;42.144;24.794;2023-03-14T01:02:46;152961.34;;;1.53;100.00
5350;BME280;2697;42.144;24.794;2023-03-14T01:05:11;152943.03;;;1.46;100.00
5350;BME280;2697;42.144;24.794;2023-03-14T01:07:37;152918.19;;;1.36;100.00
5350;BME280;2697;42.144;24.794;2023-03-14T01:10:04;152898.59;;;1.28;100.00
5350;BME280;2697;42.144;24.794;2023-03-14T01:12:30;152901.22;;;1.29;100.00
5350;BME280;2697;42.144;24.794;2023-03-14T01:14:56;152911.69;;;1.33;100.00
5350;BME280;2697;42.144;24.794;2023-03-14T01:17:21;152898.59;;;1.28;100.00
5350;BME280;2697;42.144;24.794;2023-03-14T01:19:47;152886.88;;;1.24;100.00
5350;BME280;2697;42.144;24.794;2023-03-14T01:22:12;152916.91;;;1.35;100.00
5350;BME280;2697;42.144;24.794;2023-03-14T01:24:38;152896.00;;;1.27;100.00
5350;BME280;2697;42.144;24.794;2023-03-14T01:27:03;152889.47;;;1.25;100.00
5350;BME280;2697;42.144;24.794;2023-03-14T01:29:29;152893.38;;;1.26;100.00
5350;BME280;2697;42.144;24.794;2023-03-14T01:31:54;152898.59;;;1.28;100.00
5350;BME280;2697;42.144;24.794;2023-03-14T01:34:19;152892.06;;;1.26;100.00
5350;BME280;2697;42.144;24.794;2023-03-14T01:36:45;152886.88;;;1.24;100.00
5350;BME280;2697;42.144;24.794;2023-03-14T01:39:10;152888.16;;;1.24;100.00
5350;BME280;2697;42.144;24.794;2023-03-14T01:41:36;152924.72;;;1.38;100.00
5350;BME280;2697;42.144;24.794;2023-03-14T01:44:02;152987.47;;;1.63;100.00
5350;BME280;2697;42.144;24.794;2023-03-14T01:46:37;153011.00;;;1.72;100.00
5350;BME280;2697;42.144;24.794;2023-03-14T01:49:41;152990.06;;;1.64;100.00
5350;BME280;2697;42.144;24.794;2023-03-14T01:54:42;152946.94;;;1.47;100.00
5350;BME280;2697;42.144;24.794;2023-03-14T01:57:10;152919.50;;;1.36;100.00
5350;BME280;2697;42.144;24.794;2023-03-14T01:59:40;152919.50;;;1.36;100.00
5350;BME280;2697;42.144;24.794;2023-03-14T02:02:10;152897.28;;;1.28;100.00
5350;BME280;2697;42.144;24.794;2023-03-14T02:04:38;152906.47;;;1.31;100.00
5350;BME280;2697;42.144;24.794;2023-03-14T02:09:33;152906.47;;;1.31;100.00
5350;BME280;2697;42.144;24.794;2023-03-14T02:11:58;152906.47;;;1.31;100.00
5350;BME280;2697;42.144;24.794;2023-03-14T02:14:33;152958.72;;;1.52;100.00
5350;BME280;2697;42.144;24.794;2023-03-14T02:17:01;152932.59;;;1.41;100.00
5350;BME280;2697;42.144;24.794;2023-03-14T02:22:33;152869.88;;;1.17;100.00
5350;BME280;2697;42.144;24.794;2023-03-14T02:27:30;152872.47;;;1.18;100.00
5350;BME280;2697;42.144;24.794;2023-03-14T02:30:13;152927.34;;;1.39;100.00
5350;BME280;2697;42.144;24.794;2023-03-14T02:32:42;152916.91;;;1.35;100.00
5350;BME280;2697;42.144;24.794;2023-03-14T02:35:12;152931.28;;;1.41;100.00
5350;BME280;2697;42.144;24.794;2023-03-14T02:37:47;152907.78;;;1.32;100.00
5350;BME280;2697;42.144;24.794;2023-03-14T02:40:14;152885.56;;;1.23;100.00
5350;BME280;2697;42.144;24.794;2023-03-14T02:42:40;152846.34;;;1.08;100.00
5350;BME280;2697;42.144;24.794;2023-03-14T02:47:34;152798.03;;;0.89;100.00
5350;BME280;2697;42.144;24.794;2023-03-14T02:50:04;152807.16;;;0.93;100.00
5350;BME280;2697;42.144;24.794;2023-03-14T02:52:30;152803.25;;;0.91;100.00
5350;BME280;2697;42.144;24.794;2023-03-14T02:54:56;152833.31;;;1.03;100.00
5350;BME280;2697;42.144;24.794;2023-03-14T02:57:21;152800.63;;;0.90;100.00
5350;BME280;2697;42.144;24.794;2023-03-14T02:59:46;152740.59;;;0.67;100.00
5350;BME280;2697;42.144;24.794;2023-03-14T03:02:12;152760.13;;;0.74;100.00
5350;BME280;2697;42.144;24.794;2023-03-14T03:04:37;152718.38;;;0.58;100.00
5350;BME280;2697;42.144;24.794;2023-03-14T03:07:03;152702.69;;;0.52;100.00
5350;BME280;2697;42.144;24.794;2023-03-14T03:09:28;152710.53;;;0.55;100.00
5350;BME280;2697;42.144;24.794;2023-03-14T03:11:53;152694.88;;;0.49;100.00
5350;BME280;2697;42.144;24.794;2023-03-14T03:14:19;152692.28;;;0.48;100.00
5350;BME280;2697;42.144;24.794;2023-03-14T03:16:44;152781.03;;;0.82;100.00
5350;BME280;2697;42.144;24.794;2023-03-14T03:19:09;152869.88;;;1.17;100.00
5350;BME280;2697;42.144;24.794;2023-03-14T03:21:35;152907.78;;;1.32;100.00
5350;BME280;2697;42.144;24.794;2023-03-14T03:24:00;152937.81;;;1.43;100.00
5350;BME280;2697;42.144;24.794;2023-03-14T03:26:26;152980.94;;;1.60;100.00
5350;BME280;2697;42.144;24.794;2023-03-14T03:28:51;152977.03;;;1.59;100.00
5350;BME280;2697;42.144;24.794;2023-03-14T03:31:17;152974.38;;;1.58;100.00
5350;BME280;2697;42.144;24.794;2023-03-14T03:33:43;152892.06;;;1.26;100.00
5350;BME280;2697;42.144;24.794;2023-03-14T03:36:09;152896.00;;;1.27;100.00
5350;BME280;2697;42.144;24.794;2023-03-14T03:38:35;152869.88;;;1.17;100.00
5350;BME280;2697;42.144;24.794;2023-03-14T03:41:05;152846.34;;;1.08;100.00
5350;BME280;2697;42.144;24.794;2023-03-14T03:43:31;152859.44;;;1.13;100.00
5350;BME280;2697;42.144;24.794;2023-03-14T03:45:57;152799.31;;;0.90;100.00
5350;BME280;2697;42.144;24.794;2023-03-14T03:48:22;152709.22;;;0.54;100.00
5350;BME280;2697;42.144;24.794;2023-03-14T03:50:47;152675.28;;;0.41;100.00
5350;BME280;2697;42.144;24.794;2023-03-14T03:53:13;152687.00;;;0.46;100.00
5350;BME280;2697;42.144;24.794;2023-03-14T03:55:41;152718.38;;;0.58;100.00
5350;BME280;2697;42.144;24.794;2023-03-14T03:58:07;152679.19;;;0.43;100.00
5350;BME280;2697;42.144;24.794;2023-03-14T04:00:33;152657.00;;;0.34;100.00
5350;BME280;2697;42.144;24.794;2023-03-14T04:02:58;152595.69;;;0.10;100.00
5350;BME280;2697;42.144;24.794;2023-03-14T04:05:24;152553.91;;;-0.06;100.00
5350;BME280;2697;42.144;24.794;2023-03-14T04:07:50;152522.63;;;-0.18;100.00
5350;BME280;2697;42.144;24.794;2023-03-14T04:10:15;152527.81;;;-0.16;100.00
5350;BME280;2697;42.144;24.794;2023-03-14T04:12:41;152535.63;;;-0.13;100.00
5350;BME280;2697;42.144;24.794;2023-03-14T04:15:07;152522.63;;;-0.18;100.00
5350;BME280;2697;42.144;24.794;2023-03-14T04:17:32;152487.34;;;-0.32;100.00
5350;BME280;2697;42.144;24.794;2023-03-14T04:19:58;152453.47;;;-0.45;100.00
5350;BME280;2697;42.144;24.794;2023-03-14T04:22:23;152415.63;;;-0.60;100.00
5350;BME280;2697;42.144;24.794;2023-03-14T04:24:48;152384.31;;;-0.72;100.00
5350;BME280;2697;42.144;24.794;2023-03-14T04:27:14;152362.16;;;-0.81;100.00
5350;BME280;2697;42.144;24.794;2023-03-14T04:29:40;152324.31;;;-0.96;100.00
5350;BME280;2697;42.144;24.794;2023-03-14T04:32:05;152300.84;;;-1.05;100.00
5350;BME280;2697;42.144;24.794;2023-03-14T04:34:31;152320.41;;;-0.97;100.00
5350;BME280;2697;42.144;24.794;2023-03-14T04:36:56;152287.84;;;-1.10;100.00
5350;BME280;2697;42.144;24.794;2023-03-14T04:39:21;152259.13;;;-1.21;100.00
5350;BME280;2697;42.144;24.794;2023-03-14T04:41:47;152285.25;;;-1.11;100.00
5350;BME280;2697;42.144;24.794;2023-03-14T04:44:12;152317.81;;;-0.98;100.00
5350;BME280;2697;42.144;24.794;2023-03-14T04:46:38;152364.75;;;-0.80;100.00
5350;BME280;2697;42.144;24.794;2023-03-14T04:49:03;152443.00;;;-0.49;100.00
5350;BME280;2697;42.144;24.794;2023-03-14T04:51:28;152538.22;;;-0.12;100.00
5350;BME280;2697;42.144;24.794;2023-03-14T04:53:54;152659.59;;;0.35;100.00
5350;BME280;2697;42.144;24.794;2023-03-14T04:56:20;152799.31;;;0.90;100.00
5350;BME280;2697;42.144;24.794;2023-03-14T04:58:45;152847.66;;;1.08;100.00
5350;BME280;2697;42.144;24.794;2023-03-14T05:01:11;152936.50;;;1.43;100.00
5350;BME280;2697;42.144;24.794;2023-03-14T05:03:36;153028.00;;;1.79;100.00
5350;BME280;2697;42.144;24.794;2023-03-14T05:06:03;153009.69;;;1.71;100.00
5350;BME280;2697;42.144;24.794;2023-03-14T05:08:29;153005.78;;;1.70;100.00
5350;BME280;2697;42.144;24.794;2023-03-14T05:10:56;153058.03;;;1.90;100.00
5350;BME280;2697;42.144;24.794;2023-03-14T05:13:22;153080.28;;;1.99;100.00
5350;BME280;2697;42.144;24.794;2023-03-14T05:15:48;153143.06;;;2.23;100.00
5350;BME280;2697;42.144;24.794;2023-03-14T05:18:13;153294.75;;;2.82;100.00
5350;BME280;2697;42.144;24.794;2023-03-14T05:20:39;153809.31;;;4.82;100.00
5350;BME280;2697;42.144;24.794;2023-03-14T05:23:04;154236.91;;;6.48;100.00
5350;BME280;2697;42.144;24.794;2023-03-14T05:25:29;154562.56;;;7.75;79.45
5350;BME280;2697;42.144;24.794;2023-03-14T05:27:55;154829.41;;;8.78;68.33
5350;BME280;2697;42.144;24.794;2023-03-14T05:30:21;154871.50;;;8.94;63.56
5350;BME280;2697;42.144;24.794;2023-03-14T05:32:47;154962.22;;;9.29;61.20
5350;BME280;2697;42.144;24.794;2023-03-14T05:35:12;154763.66;;;8.52;64.30
5350;BME280;2697;42.144;24.794;2023-03-14T05:37:38;155035.88;;;9.58;59.80
5350;BME280;2697;42.144;24.794;2023-03-14T05:40:04;154996.44;;;9.42;60.36
5350;BME280;2697;42.144;24.794;2023-03-14T05:42:31;155006.94;;;9.47;59.75
5350;BME280;2697;42.144;24.794;2023-03-14T05:44:57;155245.22;;;10.39;58.84
5350;BME280;2697;42.144;24.794;2023-03-14T05:47:22;155075.38;;;9.73;58.78
5350;BME280;2697;42.144;24.794;2023-03-14T05:49:48;155053.00;;;9.64;58.75
5350;BME280;2697;42.144;24.794;2023-03-14T05:52:13;154665.03;;;8.14;62.99
5350;BME280;2697;42.144;24.794;2023-03-14T05:54:39;154842.53;;;8.83;61.33
5350;BME280;2697;42.144;24.794;2023-03-14T05:57:06;154704.47;;;8.29;64.55
5350;BME280;2697;42.144;24.794;2023-03-14T05:59:32;155126.69;;;9.93;58.56
5350;BME280;2697;42.144;24.794;2023-03-14T06:01:57;155076.69;;;9.74;56.54
5350;BME280;2697;42.144;24.794;2023-03-14T06:04:23;155228.06;;;10.32;54.93
5350;BME280;2697;42.144;24.794;2023-03-14T06:06:48;155104.31;;;9.84;55.21
5350;BME280;2697;42.144;24.794;2023-03-14T06:09:14;154999.06;;;9.43;55.25
5350;BME280;2697;42.144;24.794;2023-03-14T06:11:39;154751.84;;;8.48;59.39
5350;BME280;2697;42.144;24.794;2023-03-14T06:14:04;154680.81;;;8.20;61.28
5350;BME280;2697;42.144;24.794;2023-03-14T06:16:30;154980.63;;;9.36;57.80
5350;BME280;2697;42.144;24.794;2023-03-14T06:18:57;154483.72;;;7.44;62.51
5350;BME280;2697;42.144;24.794;2023-03-14T06:21:22;154223.81;;;6.43;69.25
5350;BME280;2697;42.144;24.794;2023-03-14T06:23:48;154026.94;;;5.67;75.24
5350;BME280;2697;42.144;24.794;2023-03-14T06:26:13;153988.94;;;5.52;78.70
5350;BME280;2697;42.144;24.794;2023-03-14T06:28:39;153915.50;;;5.24;80.80
5350;BME280;2697;42.144;24.794;2023-03-14T06:31:04;153709.75;;;4.44;88.01
5350;BME280;2697;42.144;24.794;2023-03-14T06:33:30;153701.91;;;4.41;90.79
5350;BME280;2697;42.144;24.794;2023-03-14T06:35:55;153652.13;;;4.21;90.77
5350;BME280;2697;42.144;24.794;2023-03-14T06:38:21;153730.72;;;4.52;89.36
5350;BME280;2697;42.144;24.794;2023-03-14T06:40:46;153821.13;;;4.87;87.52
5350;BME280;2697;42.144;24.794;2023-03-14T06:43:11;153764.75;;;4.65;90.17
5350;BME280;2697;42.144;24.794;2023-03-14T06:45:37;153783.13;;;4.72;90.12
5350;BME280;2697;42.144;24.794;2023-03-14T06:48:02;153859.13;;;5.02;87.96
5350;BME280;2697;42.144;24.794;2023-03-14T06:50:28;153865.72;;;5.04;87.50
5350;BME280;2697;42.144;24.794;2023-03-14T06:52:53;153802.78;;;4.80;88.16
5350;BME280;2697;42.144;24.794;2023-03-14T06:55:18;153886.69;;;5.12;88.59
5350;BME280;2697;42.144;24.794;2023-03-14T06:57:44;153877.47;;;5.09;88.19
5350;BME280;2697;42.144;24.794;2023-03-14T07:00:10;153916.81;;;5.24;90.17
5350;BME280;2697;42.144;24.794;2023-03-14T07:02:36;153885.38;;;5.12;89.33
5350;BME280;2697;42.144;24.794;2023-03-14T07:05:01;153967.94;;;5.44;86.49
5350;BME280;2697;42.144;24.794;2023-03-14T07:07:28;153846.03;;;4.97;89.19
5350;BME280;2697;42.144;24.794;2023-03-14T07:09:54;153861.78;;;5.03;89.62
5350;BME280;2697;42.144;24.794;2023-03-14T07:12:20;153864.41;;;5.04;90.23
5350;BME280;2697;42.144;24.794;2023-03-14T07:14:45;153864.41;;;5.04;89.42
5350;BME280;2697;42.144;24.794;2023-03-14T07:17:11;153903.69;;;5.19;89.95
5350;BME280;2697;42.144;24.794;2023-03-14T07:19:36;153958.78;;;5.40;89.66
5350;BME280;2697;42.144;24.794;2023-03-14T07:22:03;153922.06;;;5.26;90.91
5350;BME280;2697;42.144;24.794;2023-03-14T07:24:29;154011.22;;;5.61;90.48
5350;BME280;2697;42.144;24.794;2023-03-14T07:26:54;154104.41;;;5.97;87.32
5350;BME280;2697;42.144;24.794;2023-03-14T07:29:19;154061.06;;;5.80;86.78
5350;BME280;2697;42.144;24.794;2023-03-14T07:31:45;154110.94;;;5.99;85.78
5350;BME280;2697;42.144;24.794;2023-03-14T07:34:10;154084.69;;;5.89;85.71
5350;BME280;2697;42.144;24.794;2023-03-14T07:36:36;154160.81;;;6.19;86.79
5350;BME280;2697;42.144;24.794;2023-03-14T07:39:01;154221.19;;;6.42;82.78
5350;BME280;2697;42.144;24.794;2023-03-14T07:41:27;154244.81;;;6.51;82.19
5350;BME280;2697;42.144;24.794;2023-03-14T07:43:52;154173.94;;;6.24;83.90
5350;BME280;2697;42.144;24.794;2023-03-14T07:46:17;154236.91;;;6.48;81.22
5350;BME280;2697;42.144;24.794;2023-03-14T07:48:43;154202.81;;;6.35;79.82
5350;BME280;2697;42.144;24.794;2023-03-14T07:51:09;154229.03;;;6.45;79.48
5350;BME280;2697;42.144;24.794;2023-03-14T07:53:34;154227.72;;;6.45;81.76
5350;BME280;2697;42.144;24.794;2023-03-14T07:56:00;154302.53;;;6.74;80.09
5350;BME280;2697;42.144;24.794;2023-03-14T07:58:25;154310.41;;;6.77;79.69
5350;BME280;2697;42.144;24.794;2023-03-14T08:00:51;154197.56;;;6.33;79.85
5350;BME280;2697;42.144;24.794;2023-03-14T08:03:17;154330.09;;;6.84;79.13
5350;BME280;2697;42.144;24.794;2023-03-14T08:05:43;154335.34;;;6.86;80.00
5350;BME280;2697;42.144;24.794;2023-03-14T08:08:09;154330.09;;;6.84;78.74
5350;BME280;2697;42.144;24.794;2023-03-14T08:10:36;154327.47;;;6.83;78.56
5350;BME280;2697;42.144;24.794;2023-03-14T08:13:01;154449.59;;;7.31;75.23
5350;BME280;2697;42.144;24.794;2023-03-14T08:15:29;154537.59;;;7.65;72.29
5350;BME280;2697;42.144;24.794;2023-03-14T08:17:55;154507.34;;;7.53;72.37
5350;BME280;2697;42.144;24.794;2023-03-14T08:20:22;154534.97;;;7.64;73.27
5350;BME280;2697;42.144;24.794;2023-03-14T08:22:48;154580.97;;;7.82;72.18
5350;BME280;2697;42.144;24.794;2023-03-14T08:25:14;154636.13;;;8.03;70.25
5350;BME280;2697;42.144;24.794;2023-03-14T08:27:40;154672.91;;;8.17;69.05
5350;BME280;2697;42.144;24.794;2023-03-14T08:30:09;154570.44;;;7.78;69.19
5350;BME280;2697;42.144;24.794;2023-03-14T08:32:35;154613.78;;;7.94;68.92
5350;BME280;2697;42.144;24.794;2023-03-14T08:35:00;154658.47;;;8.12;68.79
5350;BME280;2697;42.144;24.794;2023-03-14T08:37:26;154667.66;;;8.15;68.41
5350;BME280;2697;42.144;24.794;2023-03-14T08:39:52;154678.19;;;8.19;66.73
5350;BME280;2697;42.144;24.794;2023-03-14T08:42:17;154738.69;;;8.43;65.92
5350;BME280;2697;42.144;24.794;2023-03-14T08:44:43;154767.59;;;8.54;64.47
5350;BME280;2697;42.144;24.794;2023-03-14T08:47:09;154722.91;;;8.37;64.96
5350;BME280;2697;42.144;24.794;2023-03-14T08:49:34;154762.34;;;8.52;64.02
5350;BME280;2697;42.144;24.794;2023-03-14T08:52:04;154787.31;;;8.62;62.42
5350;BME280;2697;42.144;24.794;2023-03-14T08:54:29;154783.38;;;8.60;63.76
5350;BME280;2697;42.144;24.794;2023-03-14T08:56:55;154778.13;;;8.58;62.85
5350;BME280;2697;42.144;24.794;2023-03-14T08:59:21;154851.75;;;8.87;59.87
5350;BME280;2697;42.144;24.794;2023-03-14T09:01:47;154875.44;;;8.96;60.26
5350;BME280;2697;42.144;24.794;2023-03-14T09:04:12;154826.78;;;8.77;58.82
5350;BME280;2697;42.144;24.794;2023-03-14T09:06:38;154814.94;;;8.72;60.14
5350;BME280;2697;42.144;24.794;2023-03-14T09:09:04;154912.22;;;9.10;58.93
5350;BME280;2697;42.144;24.794;2023-03-14T09:11:30;154930.66;;;9.17;56.91
5350;BME280;2697;42.144;24.794;2023-03-14T09:13:55;155005.63;;;9.46;55.42
5350;BME280;2697;42.144;24.794;2023-03-14T09:16:21;154983.25;;;9.37;55.50
5350;BME280;2697;42.144;24.794;2023-03-14T09:18:46;155009.56;;;9.48;55.36
5350;BME280;2697;42.144;24.794;2023-03-14T09:21:11;154917.53;;;9.12;55.60
5350;BME280;2697;42.144;24.794;2023-03-14T09:23:38;154950.41;;;9.25;56.83
5350;BME280;2697;42.144;24.794;2023-03-14T09:26:04;155041.19;;;9.60;56.31
5350;BME280;2697;42.144;24.794;2023-03-14T09:28:29;155028.00;;;9.55;56.81
5350;BME280;2697;42.144;24.794;2023-03-14T09:30:55;155043.81;;;9.61;56.18
5350;BME280;2697;42.144;24.794;2023-03-14T09:33:21;155071.44;;;9.71;55.53
5350;BME280;2697;42.144;24.794;2023-03-14T09:35:46;155110.94;;;9.87;54.56
5350;BME280;2697;42.144;24.794;2023-03-14T09:38:12;155063.56;;;9.68;54.64
5350;BME280;2697;42.144;24.794;2023-03-14T09:40:38;155180.63;;;10.14;52.76
5350;BME280;2697;42.144;24.794;2023-03-14T09:43:04;155116.19;;;9.89;54.04
5350;BME280;2697;42.144;24.794;2023-03-14T09:45:33;155164.88;;;10.08;53.82
5350;BME280;2697;42.144;24.794;2023-03-14T09:48:01;155167.50;;;10.09;54.13
5350;BME280;2697;42.144;24.794;2023-03-14T09:50:53;155154.31;;;10.04;53.94
5350;BME280;2697;42.144;24.794;2023-03-14T09:53:20;155238.63;;;10.36;52.33
5350;BME280;2697;42.144;24.794;2023-03-14T09:55:49;155257.09;;;10.43;53.03
5350;BME280;2697;42.144;24.794;2023-03-14T09:58:20;155322.88;;;10.69;53.19
5350;BME280;2697;42.144;24.794;2023-03-14T10:00:46;155268.91;;;10.48;53.34
5350;BME280;2697;42.144;24.794;2023-03-14T10:05:37;155320.25;;;10.68;54.00
5350;BME280;2697;42.144;24.794;2023-03-14T10:08:03;155370.28;;;10.87;53.94
5350;BME280;2697;42.144;24.794;2023-03-14T10:10:28;155415.09;;;11.04;52.73
5350;BME280;2697;42.144;24.794;2023-03-14T10:13:12;155444.06;;;11.16;52.71
5350;BME280;2697;42.144;24.794;2023-03-14T10:15:39;155428.28;;;11.09;52.62
5350;BME280;2697;42.144;24.794;2023-03-14T10:18:12;155454.63;;;11.20;52.40
5350;BME280;2697;42.144;24.794;2023-03-14T10:20:43;155454.63;;;11.20;52.88
5350;BME280;2697;42.144;24.794;2023-03-14T10:25:44;155491.47;;;11.34;52.06
5350;BME280;2697;42.144;24.794;2023-03-14T10:28:34;155529.72;;;11.49;51.44
5350;BME280;2697;42.144;24.794;2023-03-14T10:31:02;155557.38;;;11.59;50.25
5350;BME280;2697;42.144;24.794;2023-03-14T10:33:32;155488.84;;;11.33;50.28
5350;BME280;2697;42.144;24.794;2023-03-14T10:36:23;155523.16;;;11.46;50.00
5350;BME280;2697;42.144;24.794;2023-03-14T10:38:58;155554.75;;;11.58;48.50
5350;BME280;2697;42.144;24.794;2023-03-14T10:41:31;155550.81;;;11.57;48.59
5350;BME280;2697;42.144;24.794;2023-03-14T10:43:59;155502.06;;;11.38;49.07
5350;BME280;2697;42.144;24.794;2023-03-14T10:46:27;155506.00;;;11.39;48.88
5350;BME280;2697;42.144;24.794;2023-03-14T10:48:55;155552.13;;;11.57;48.85
5350;BME280;2697;42.144;24.794;2023-03-14T10:51:29;155524.47;;;11.47;48.76
5350;BME280;2697;42.144;24.794;2023-03-14T10:54:24;155508.63;;;11.40;49.86
5350;BME280;2697;42.144;24.794;2023-03-14T10:56:58;155641.81;;;11.92;48.52
5350;BME280;2697;42.144;24.794;2023-03-14T10:59:23;155625.97;;;11.86;48.04
5350;BME280;2697;42.144;24.794;2023-03-14T11:01:59;155595.63;;;11.74;48.00
5350;BME280;2697;42.144;24.794;2023-03-14T11:07:38;155745.94;;;12.32;46.68
5350;BME280;2697;42.144;24.794;2023-03-14T11:12:55;155800.00;;;12.53;47.29
5350;BME280;2697;42.144;24.794;2023-03-14T11:15:50;155843.53;;;12.70;45.94
5350;BME280;2697;42.144;24.794;2023-03-14T11:18:51;155922.66;;;13.00;45.23
5350;BME280;2697;42.144;24.794;2023-03-14T11:21:39;155908.19;;;12.95;45.65
5350;BME280;2697;42.144;24.794;2023-03-14T11:29:39;155892.34;;;12.89;45.14
5350;BME280;2697;42.144;24.794;2023-03-14T11:32:37;155953.00;;;13.12;45.43
5350;BME280;2697;42.144;24.794;2023-03-14T11:35:17;155891.03;;;12.88;45.28
5350;BME280;2697;42.144;24.794;2023-03-14T11:37:55;155839.59;;;12.68;46.09
5350;BME280;2697;42.144;24.794;2023-03-14T11:40:24;155864.63;;;12.78;45.45
5350;BME280;2697;42.144;24.794;2023-03-14T11:42:59;155850.13;;;12.72;46.15
5350;BME280;2697;42.144;24.794;2023-03-14T11:45:44;155963.59;;;13.16;45.92
5350;BME280;2697;42.144;24.794;2023-03-14T11:48:15;155997.91;;;13.29;45.67
5350;BME280;2697;42.144;24.794;2023-03-14T11:50:44;155946.41;;;13.09;46.14
5350;BME280;2697;42.144;24.794;2023-03-14T11:55:44;156011.13;;;13.34;45.14
5350;BME280;2697;42.144;24.794;2023-03-14T11:58:23;155947.72;;;13.10;45.70
5350;BME280;2697;42.144;24.794;2023-03-14T12:00:53;155921.34;;;13.00;45.65
5350;BME280;2697;42.144;24.794;2023-03-14T12:03:36;155997.91;;;13.29;46.02
5350;BME280;2697;42.144;24.794;2023-03-14T12:08:52;155988.69;;;13.26;46.40
5350;BME280;2697;42.144;24.794;2023-03-14T12:11:35;156106.16;;;13.71;45.95
5350;BME280;2697;42.144;24.794;2023-03-14T12:14:17;156013.78;;;13.35;46.20
5350;BME280;2697;42.144;24.794;2023-03-14T12:16:46;156038.84;;;13.45;45.97
5350;BME280;2697;42.144;24.794;2023-03-14T12:21:57;156100.91;;;13.69;46.41
5350;BME280;2697;42.144;24.794;2023-03-14T12:24:32;156147.09;;;13.87;46.19
5350;BME280;2697;42.144;24.794;2023-03-14T12:27:01;156205.16;;;14.09;45.82
5350;BME280;2697;42.144;24.794;2023-03-14T12:29:27;156206.50;;;14.10;45.44
5350;BME280;2697;42.144;24.794;2023-03-14T12:32:22;156145.75;;;13.86;46.52
5350;BME280;2697;42.144;24.794;2023-03-14T12:34:48;156136.50;;;13.83;46.19
5350;BME280;2697;42.144;24.794;2023-03-14T12:37:36;156185.38;;;14.02;45.77
5350;BME280;2697;42.144;24.794;2023-03-14T12:42:57;156075.81;;;13.59;46.01
5350;BME280;2697;42.144;24.794;2023-03-14T12:45:30;156089.00;;;13.64;46.39
5350;BME280;2697;42.144;24.794;2023-03-14T12:48:00;156100.91;;;13.69;46.94
5350;BME280;2697;42.144;24.794;2023-03-14T12:50:36;156155.00;;;13.90;45.84
5350;BME280;2697;42.144;24.794;2023-03-14T12:53:41;156118.03;;;13.76;45.89
5350;BME280;2697;42.144;24.794;2023-03-14T12:56:21;156100.91;;;13.69;45.28
5350;BME280;2697;42.144;24.794;2023-03-14T13:02:14;156145.75;;;13.86;45.07
5350;BME280;2697;42.144;24.794;2023-03-14T13:05:31;156156.31;;;13.90;45.30
5350;BME280;2697;42.144;24.794;2023-03-14T13:10:21;156217.03;;;14.14;45.07
5350;BME280;2697;42.144;24.794;2023-03-14T13:12:50;156214.41;;;14.13;45.52
5350;BME280;2697;42.144;24.794;2023-03-14T13:15:29;156230.25;;;14.19;45.50
5350;BME280;2697;42.144;24.794;2023-03-14T13:18:02;156259.31;;;14.30;44.99
5350;BME280;2697;42.144;24.794;2023-03-14T13:20:56;156210.44;;;14.11;45.53
5350;BME280;2697;42.144;24.794;2023-03-14T13:23:26;156257.97;;;14.30;44.81
5350;BME280;2697;42.144;24.794;2023-03-14T13:25:52;156267.25;;;14.33;44.48
5350;BME280;2697;42.144;24.794;2023-03-14T13:28:18;156225.00;;;14.17;44.36
5350;BME280;2697;42.144;24.794;2023-03-14T13:30:46;156161.59;;;13.92;44.55
5350;BME280;2697;42.144;24.794;2023-03-14T13:33:22;156195.94;;;14.06;44.71
5350;BME280;2697;42.144;24.794;2023-03-14T13:35:55;156261.94;;;14.31;44.56
5350;BME280;2697;42.144;24.794;2023-03-14T13:38:23;156193.25;;;14.05;45.34
5350;BME280;2697;42.144;24.794;2023-03-14T13:40:50;156166.88;;;13.94;45.71
5350;BME280;2697;42.144;24.794;2023-03-14T13:43:34;156280.44;;;14.38;44.81
5350;BME280;2697;42.144;24.794;2023-03-14T13:46:13;156318.81;;;14.53;45.05
5350;BME280;2697;42.144;24.794;2023-03-14T13:48:44;156384.81;;;14.78;44.64
5350;BME280;2697;42.144;24.794;2023-03-14T13:51:12;156332.00;;;14.58;44.46
5350;BME280;2697;42.144;24.794;2023-03-14T13:53:45;156411.25;;;14.89;43.84
5350;BME280;2697;42.144;24.794;2023-03-14T13:56:11;156400.69;;;14.85;43.62